Cole Grade (215) Station Data

Red Flag Warning: No
Fire Weather Zone: 250
SDGE Region: North East
Lat/Lon: 33.285/-117.016

Observations

Time Wind Speed/Gust Temp(F) RH Fuel Moist Fuel Temp(F) Dewpt(F) Tmax(F) Tmin(F) Accum Precip 10-min Precip SL Press(mb)
4/30 12:00am 57 3 G 4 64° 16% - - 16° 80.7° 58.2° - - 1020.0
4/29 11:50pm 98 2 G 4 64° 16% - - 17° 80.7° 58.2° - - 1020.0
4/29 11:40pm 120 2 G 5 63° 17% - - 18° 80.7° 58.2° - - 1020.0
4/29 11:30pm 133 1 G 3 63° 18% - - 18° 80.7° 58.2° - - 1020.0
4/29 11:20pm 142 2 G 4 62° 18% - - 18° 80.7° 58.2° - - 1020.0
4/29 11:10pm 154 2 G 4 63° 18% - - 18° 80.7° 58.2° - - 1020.0
4/29 11:00pm 150 2 G 4 63° 18% - - 18° 80.7° 58.2° - - 1020.0
4/29 10:50pm 148 3 G 5 63° 18% - - 19° 80.7° 58.2° - - 1020.0
4/29 10:40pm 150 2 G 6 63° 18% - - 19° 80.7° 58.2° - - 1020.0
4/29 10:30pm 151 2 G 5 63° 19% - - 20° 80.7° 58.2° - - 1020.0
4/29 10:20pm 171 3 G 6 63° 19% - - 20° 80.7° 58.2° - - 1020.0
4/29 10:10pm 175 2 G 5 63° 19% - - 20° 80.7° 58.2° - - 1020.0
4/29 10:00pm 157 3 G 7 63° 19% - - 20° 80.7° 58.2° - - 1019.0
4/29 9:50pm 161 4 G 7 63° 19% - - 20° 80.7° 58.2° - - 1019.0
4/29 9:40pm 171 3 G 6 64° 18% - - 19° 80.7° 58.2° - - 1019.0
4/29 9:30pm 179 2 G 5 65° 17% - - 19° 80.7° 58.2° - - 1019.0
4/29 9:20pm 155 2 G 5 64° 17% - - 19° 80.7° 58.2° - - 1019.0
4/29 9:10pm 131 2 G 6 65° 18% - - 20° 80.7° 58.2° - - 1019.0
4/29 9:00pm 130 2 G 5 65° 18% - - 20° 80.7° 58.2° - - 1019.0
4/29 8:50pm 153 1 G 3 65° 19% - - 21° 80.7° 58.2° - - 1019.0
4/29 8:40pm 130 2 G 4 65° 19% - - 22° 80.7° 58.2° - - 1018.0
4/29 8:30pm 121 1 G 2 66° 18% - - 21° 80.7° 58.2° - - 1018.0
4/29 8:20pm 126 1 G 3 66° 19% - - 22° 80.7° 58.2° - - 1018.0
4/29 8:10pm 153 1 G 3 66° 19% - - 23° 80.7° 58.2° - - 1018.0
4/29 8:00pm 114 1 G 3 66° 19% - - 23° 80.7° 58.2° - - 1018.0
4/29 7:50pm 152 1 G 2 67° 19% - - 23° 80.7° 58.2° - - 1018.0
4/29 7:40pm 173 2 G 2 67° 19% - - 23° 80.7° 58.2° - - 1018.0
4/29 7:30pm 196 2 G 5 67° 19% - - 23° 80.7° 58.2° - - 1017.0
4/29 7:20pm 212 3 G 6 68° 17% - - 22° 80.7° 58.2° - - 1017.0
4/29 7:10pm 231 5 G 7 69° 16% - - 21° 80.7° 58.2° - - 1017.0
4/29 7:00pm 221 5 G 10 69° 16% - - 21° 80.7° 58.2° - - 1017.0
4/29 6:50pm 221 5 G 9 70° 16% - - 22° 80.7° 58.2° - - 1017.0
4/29 6:40pm 219 6 G 11 70° 17% - - 23° 80.7° 58.2° - - 1017.0
4/29 6:30pm 224 6 G 10 70° 16% - - 22° 80.7° 58.2° - - 1016.0
4/29 6:20pm 233 7 G 13 71° 14% - - 20° 80.7° 58.2° - - 1016.0
4/29 6:10pm 248 8 G 12 71° 13% - - 18° 80.7° 58.2° - - 1016.0
4/29 6:00pm 258 8 G 14 71° 13% - - 18° 80.7° 58.2° - - 1016.0
4/29 5:50pm 254 10 G 14 72° 14% - - 20° 80.7° 58.2° - - 1016.0
4/29 5:40pm 255 8 G 14 73° 14% - - 21° 80.7° 58.2° - - 1016.0
4/29 5:30pm 256 7 G 12 73° 14% - - 21° 80.7° 58.2° - - 1015.0
4/29 5:20pm 248 8 G 14 73° 14% - - 21° 80.7° 58.2° - - 1015.0
4/29 5:10pm 243 9 G 13 74° 13% - - 20° 80.7° 58.2° - - 1015.0
4/29 5:00pm 262 7 G 12 74° 13% - - 20° 80.7° 58.2° - - 1015.0
4/29 4:50pm 263 9 G 16 74° 13% - - 20° 80.7° 58.2° - - 1015.0
4/29 4:40pm 259 9 G 14 75° 13% - - 20° 80.7° 58.2° - - 1015.0
4/29 4:30pm 252 9 G 14 75° 13% - - 20° 80.7° 58.2° - - 1015.0
4/29 4:20pm 255 9 G 14 75° 12% - - 19° 80.7° 58.2° - - 1015.0
4/29 4:10pm 260 9 G 15 75° 12% - - 18° 80.7° 58.2° - - 1015.0
4/29 4:00pm 260 10 G 15 76° 11% - - 18° 80.7° 58.2° - - 1015.0
4/29 3:50pm 255 10 G 16 76° 11% - - 17° 80.7° 58.2° - - 1015.0
4/29 3:40pm 265 9 G 16 76° 11% - - 18° 80.7° 58.2° - - 1015.0
4/29 3:30pm 257 11 G 19 76° 11% - - 17° 80.7° 58.2° - - 1015.0
4/29 3:20pm 259 10 G 16 77° 11% - - 18° 80.7° 58.2° - - 1014.0
4/29 3:10pm 264 8 G 14 78° 11% - - 19° 80.7° 58.2° - - 1014.0
4/29 3:00pm 262 9 G 16 78° 11% - - 19° 80.7° 58.2° - - 1014.0
4/29 2:50pm 283 7 G 14 78° 10% - - 17° 80.7° 58.2° - - 1014.0
4/29 2:40pm 296 5 G 14 78° 10% - - 18° 80.7° 58.2° - - 1014.0
4/29 2:30pm 143 3 G 8 80° 8% - - 12° 80.7° 58.2° - - 1014.0
4/29 2:20pm 59 2 G 7 79° 7% - - 10° 79.8° 58.2° - - 1015.0
4/29 2:10pm 14 4 G 10 79° 7% - - 11° 79.8° 58.2° - - 1014.0
4/29 2:00pm 299 2 G 10 79° 8% - - 11° 79.8° 58.2° - - 1015.0
4/29 1:50pm 313 5 G 11 78° 8% - - 11° 79.3° 58.2° - - 1015.0
4/29 1:40pm 254 3 G 11 78° 7% - - 10° 78.8° 58.2° - - 1015.0
4/29 1:30pm 0 5 G 10 77° 7% - - 78.8° 58.2° - - 1015.0
4/29 1:20pm 11 4 G 9 78° 7% - - 78.8° 58.2° - - 1015.0
4/29 1:10pm 338 2 G 5 77° 7% - - 78.6° 58.2° - - 1015.0
4/29 1:00pm 267 2 G 6 77° 7% - - 77.6° 58.2° - - 1015.0
4/29 12:50pm 28 3 G 9 76° 7% - - 77° 58.2° - - 1015.0
4/29 12:40pm 348 4 G 9 76° 8% - - 10° 76.8° 58.2° - - 1015.0
4/29 12:30pm 343 6 G 11 75° 8% - - 76.7° 58.2° - - 1015.0
4/29 12:20pm 322 4 G 12 76° 8% - - 11° 76.7° 58.2° - - 1015.0
4/29 12:10pm 11 5 G 10 76° 8% - - 11° 76.7° 58.2° - - 1015.0
4/29 12:00pm 342 4 G 10 75° 8% - - 11° 76.5° 58.2° - - 1016.0
4/29 11:50am 41 4 G 9 75° 8% - - 75.5° 58.2° - - 1016.0
4/29 11:40am 345 3 G 10 75° 8% - - 10° 75.5° 58.2° - - 1015.0
4/29 11:30am 83 3 G 9 74° 8% - - 11° 75.3° 58.2° - - 1015.0
4/29 11:20am 78 4 G 9 75° 9% - - 12° 75.3° 58.2° - - 1015.0
4/29 11:10am 36 4 G 10 74° 9% - - 11° 74.2° 58.2° - - 1016.0
4/29 11:00am 15 4 G 10 74° 9% - - 10° 74.1° 58.2° - - 1016.0
4/29 10:50am 73 2 G 6 73° 8% - - 73.8° 58.2° - - 1016.0
4/29 10:40am 258 2 G 7 73° 9% - - 11° 73.8° 58.2° - - 1016.0
4/29 10:30am 244 2 G 6 72° 9% - - 73.6° 58.2° - - 1016.0
4/29 10:20am 94 3 G 8 73° 9% - - 10° 73.6° 58.2° - - 1015.0
4/29 10:10am 195 2 G 5 72° 9% - - 10° 72.5° 58.2° - - 1016.0
4/29 10:00am 109 4 G 9 72° 9% - - 10° 72.3° 58.2° - - 1016.0
4/29 9:50am 108 3 G 9 71° 10% - - 11° 72.1° 58.2° - - 1016.0
4/29 9:40am 357 3 G 7 70° 10% - - 10° 70.6° 58.2° - - 1016.0
4/29 9:30am 21 2 G 7 70° 10% - - 10° 70.3° 58.2° - - 1016.0
4/29 9:20am 30 3 G 6 69° 10% - - 10° 69.5° 58.2° - - 1016.0
4/29 9:10am 341 2 G 7 68° 11% - - 12° 69.1° 58.2° - - 1015.0
4/29 9:00am 319 2 G 4 67° 11% - - 11° 68.2° 58.2° - - 1016.0
4/29 8:50am 258 2 G 5 67° 12% - - 13° 67.2° 58.2° - - 1016.0
4/29 8:40am 262 2 G 5 65° 14% - - 14° 66.4° 58.2° - - 1016.0
4/29 8:30am 228 2 G 3 64° 14% - - 14° 66.4° 58.2° - - 1016.0
4/29 8:20am 229 2 G 4 62° 16% - - 15° 66.4° 58.2° - - 1016.0
4/29 8:10am 206 2 G 3 61° 17% - - 16° 66.4° 58.2° - - 1016.0
4/29 8:00am 190 3 G 6 61° 17% - - 16° 66.4° 58.2° - - 1016.0
4/29 7:50am 197 1 G 4 61° 16% - - 15° 66.4° 58.2° - - 1016.0
4/29 7:40am 165 1 G 4 60° 16% - - 14° 66.4° 58.2° - - 1016.0
4/29 7:30am 167 3 G 6 59° 18% - - 15° 66.4° 58.2° - - 1016.0
4/29 7:20am 232 2 G 6 59° 17% - - 15° 66.4° 58.2° - - 1015.0
4/29 7:10am 162 1 G 3 61° 14% - - 12° 66.4° 58.2° - - 1015.0
4/29 7:00am 136 1 G 3 61° 13% - - 10° 66.4° 58.2° - - 1015.0
4/29 6:50am 232 2 G 4 60° 13% - - 10° 66.4° 58.2° - - 1015.0
4/29 6:40am 288 1 G 3 61° 12% - - 66.4° 58.2° - - 1015.0
4/29 6:30am 194 1 G 3 60° 13% - - 66.4° 58.2° - - 1015.0
4/29 6:20am 210 2 G 3 59° 14% - - 10° 66.4° 58.2° - - 1015.0
4/29 6:10am 159 3 G 5 59° 14% - - 10° 66.4° 58.2° - - 1014.0
4/29 6:00am 187 4 G 5 60° 13% - - 66.4° 59.6° - - 1014.0
4/29 5:50am 255 2 G 5 61° 12% - - 66.4° 60.2° - - 1014.0
4/29 5:40am 112 1 G 4 63° 11% - - 66.4° 61.9° - - 1014.0
4/29 5:30am 100 2 G 4 64° 11% - - 66.4° 61.9° - - 1014.0
4/29 5:20am 71 4 G 7 64° 11% - - 66.4° 61.9° - - 1013.0
4/29 5:10am 74 3 G 8 63° 11% - - 66.4° 61.9° - - 1013.0
4/29 5:00am 3 3 G 7 63° 12% - - 66.4° 61.9° - - 1014.0
4/29 4:50am 4 2 G 5 62° 12% - - 10° 66.4° 61.9° - - 1014.0
4/29 4:40am 322 1 G 4 63° 12% - - 10° 66.4° 62.3° - - 1013.0
4/29 4:30am 28 2 G 6 64° 12% - - 10° 66.4° 62.5° - - 1013.0
4/29 4:20am 1 3 G 8 63° 12% - - 10° 66.4° 62.5° - - 1013.0
4/29 4:10am 75 3 G 9 64° 12% - - 10° 66.4° 62.5° - - 1013.0
4/29 4:00am 57 3 G 8 64° 12% - - 10° 66.4° 62.5° - - 1013.0
4/29 3:50am 216 1 G 2 64° 12% - - 10° 66.4° 62.5° - - 1013.0
4/29 3:40am 246 2 G 4 64° 12% - - 10° 66.4° 62.5° - - 1013.0
4/29 3:30am 145 1 G 4 65° 12% - - 10° 66.4° 62.5° - - 1013.0
4/29 3:20am 52 1 G 2 65° 12% - - 11° 66.4° 62.5° - - 1012.0
4/29 3:10am 68 2 G 5 64° 13% - - 12° 66.4° 62.5° - - 1012.0
4/29 3:00am 87 2 G 4 65° 12% - - 12° 66.4° 62.5° - - 1012.0
4/29 2:50am 34 2 G 5 65° 12% - - 12° 66.4° 62.5° - - 1012.0
4/29 2:40am 53 3 G 5 64° 13% - - 13° 66.4° 62.5° - - 1012.0
4/29 2:30am 56 3 G 7 64° 14% - - 14° 66.4° 62.5° - - 1012.0
4/29 2:20am 80 3 G 5 64° 14% - - 15° 66.4° 62.5° - - 1012.0
4/29 2:10am 55 3 G 6 65° 14% - - 15° 66.4° 62.5° - - 1012.0
4/29 2:00am 52 3 G 6 65° 14% - - 15° 66.4° 62.5° - - 1012.0
4/29 1:50am 75 3 G 5 64° 17% - - 18° 66.4° 62.5° - - 1012.0
4/29 1:40am 37 4 G 8 66° 14% - - 15° 66.4° 62.5° - - 1012.0
4/29 1:30am 35 3 G 12 65° 14% - - 15° 66° 62.5° - - 1012.0
4/29 1:20am 33 4 G 9 65° 15% - - 16° 66° 62.5° - - 1012.0
4/29 1:10am 354 4 G 8 64° 21% - - 23° 65.2° 62.5° - - 1012.0
4/29 1:00am 6 2 G 6 64° 22% - - 24° 64.7° 62.5° - - 1012.0
4/29 12:50am 41 2 G 9 63° 21% - - 22° 64.5° 62.5° - - 1012.0
4/29 12:40am 34 3 G 9 64° 22% - - 24° 64.5° 62.5° - - 1012.0
4/29 12:30am 51 1 G 4 63° 30% - - 31° 64.4° 62.5° - - 1012.0
4/29 12:20am 237 2 G 4 63° 33% - - 34° 64.4° 62.5° - - 1012.0
4/29 12:10am 308 1 G 2 63° 34% - - 34° 63.4° 62.5° - - 1012.0
4/29 12:00am 225 2 G 5 63° 36% - - 36° 73.1° 52.2° - - 1012.0
4/28 11:50pm 145 1 G 2 63° 37% - - 36° 73.1° 52.2° - - 1011.0
4/28 11:40pm 147 1 G 2 62° 38% - - 37° 73.1° 52.2° - - 1011.0
4/28 11:30pm 35 1 G 2 60° 42% - - 37° 73.1° 52.2° - - 1012.0
4/28 11:20pm 90 2 G 4 59° 45% - - 38° 73.1° 52.2° - - 1012.0
4/28 11:10pm 25 3 G 5 59° 44% - - 38° 73.1° 52.2° - - 1012.0
4/28 11:00pm 43 5 G 6 60° 42% - - 37° 73.1° 52.2° - - 1012.0
4/28 10:50pm 39 5 G 6 62° 39% - - 37° 73.1° 52.2° - - 1011.0
4/28 10:40pm 49 4 G 6 62° 39% - - 37° 73.1° 52.2° - - 1011.0
4/28 10:30pm 45 4 G 6 62° 38% - - 37° 73.1° 52.2° - - 1011.0
4/28 10:20pm 51 3 G 5 62° 38% - - 37° 73.1° 52.2° - - 1011.0
4/28 10:10pm 74 1 G 3 62° 40% - - 37° 73.1° 52.2° - - 1011.0
4/28 10:00pm 25 1 G 2 61° 41% - - 37° 73.1° 52.2° - - 1011.0
4/28 9:50pm 99 1 G 3 61° 41% - - 37° 73.1° 52.2° - - 1011.0
4/28 9:40pm 118 1 G 4 61° 41% - - 37° 73.1° 52.2° - - 1011.0
4/28 9:30pm 99 3 G 6 61° 40% - - 37° 73.1° 52.2° - - 1011.0
4/28 9:20pm 152 3 G 7 61° 40% - - 37° 73.1° 52.2° - - 1011.0
4/28 9:10pm 154 4 G 6 61° 42% - - 37° 73.1° 52.2° - - 1011.0
4/28 9:00pm 170 3 G 6 61° 42% - - 38° 73.1° 52.2° - - 1011.0
4/28 8:50pm 163 4 G 7 61° 43% - - 38° 73.1° 52.2° - - 1011.0
4/28 8:40pm 158 3 G 5 61° 42% - - 38° 73.1° 52.2° - - 1010.0
4/28 8:30pm 168 3 G 5 61° 41% - - 38° 73.1° 52.2° - - 1010.0
4/28 8:20pm 178 2 G 5 62° 42% - - 38° 73.1° 52.2° - - 1010.0
4/28 8:10pm 187 3 G 5 62° 42% - - 38° 73.1° 52.2° - - 1010.0
4/28 8:00pm 176 3 G 5 62° 41% - - 38° 73.1° 52.2° - - 1010.0
4/28 7:50pm 175 3 G 5 63° 41% - - 39° 73.1° 52.2° - - 1010.0
4/28 7:40pm 204 3 G 5 63° 40% - - 38° 73.1° 52.2° - - 1009.0
4/28 7:30pm 200 4 G 6 64° 38% - - 38° 73.1° 52.2° - - 1009.0
4/28 7:20pm 223 5 G 7 64° 37% - - 38° 73.1° 52.2° - - 1009.0
4/28 7:10pm 239 4 G 6 65° 37% - - 38° 73.1° 52.2° - - 1009.0
4/28 7:00pm 257 4 G 6 65° 36% - - 38° 73.1° 52.2° - - 1009.0
4/28 6:50pm 248 5 G 7 66° 34% - - 37° 73.1° 52.2° - - 1009.0
4/28 6:40pm 232 4 G 7 67° 32% - - 36° 73.1° 52.2° - - 1008.0
4/28 6:30pm 215 5 G 8 67° 33% - - 36° 73.1° 52.2° - - 1009.0
4/28 6:20pm 229 5 G 7 67° 33% - - 37° 73.1° 52.2° - - 1009.0
4/28 6:10pm 241 6 G 8 67° 32% - - 36° 73.1° 52.2° - - 1008.0
4/28 6:00pm 239 6 G 9 67° 31% - - 36° 73.1° 52.2° - - 1008.0